createdAt,value
2017-04-12T00:00:10.397Z,98.79
2017-04-12T00:00:51.272Z,98.6
2017-04-12T00:02:50.000Z,99.36
2017-04-12T00:03:30.876Z,99.84
2017-04-12T00:04:11.745Z,99.93
2017-04-12T00:04:52.618Z,99.99
2017-04-12T00:05:33.495Z,99.74
2017-04-12T00:06:14.369Z,99.26
2017-04-12T00:06:55.264Z,99.84
2017-04-12T00:07:36.142Z,99.36
2017-04-12T00:08:17.014Z,98.41
2017-04-12T00:08:57.889Z,99.55
2017-04-12T00:09:38.767Z,99.93
2017-04-12T00:10:19.663Z,99.84
2017-04-12T00:11:00.523Z,99.84
2017-04-12T00:11:41.397Z,99.45
2017-04-12T00:12:22.273Z,98.41
2017-04-12T00:13:03.154Z,99.45
2017-04-12T00:13:44.034Z,99.84
2017-04-12T00:14:24.913Z,99.99
2017-04-12T00:15:05.791Z,99.99
2017-04-12T00:15:46.663Z,99.99
2017-04-12T00:16:27.543Z,99.99
2017-04-12T00:17:08.431Z,99.99
2017-04-12T00:17:49.308Z,99.99
2017-04-12T00:18:30.186Z,99.99
2017-04-12T00:19:11.060Z,99.99
2017-04-12T00:19:51.945Z,99.99
2017-04-12T00:20:32.826Z,99.99
2017-04-12T00:21:13.700Z,99.99
2017-04-12T00:21:54.570Z,99.99
2017-04-12T00:22:35.449Z,99.99
2017-04-12T00:23:16.336Z,99.99
2017-04-12T00:23:57.216Z,99.99
2017-04-12T00:24:38.098Z,99.99
2017-04-12T00:25:18.974Z,99.99
2017-04-12T00:25:59.850Z,99.99
2017-04-12T00:26:40.729Z,99.99
2017-04-12T00:27:21.619Z,99.99
2017-04-12T00:28:02.500Z,99.99
2017-04-12T00:28:43.392Z,99.99
2017-04-12T00:29:24.273Z,99.99
2017-04-12T00:30:05.151Z,99.99
2017-04-12T00:30:46.036Z,99.99
2017-04-12T00:31:26.908Z,99.99
2017-04-12T00:32:07.788Z,99.99
2017-04-12T00:32:48.675Z,99.99
2017-04-12T00:33:29.555Z,99.99
2017-04-12T00:34:10.431Z,99.99
2017-04-12T00:34:51.307Z,99.99
2017-04-12T00:35:32.187Z,99.99
2017-04-12T00:36:13.074Z,99.99
2017-04-12T00:36:53.953Z,99.99
2017-04-12T00:37:34.821Z,99.99
2017-04-12T00:38:15.692Z,99.99
2017-04-12T00:38:56.574Z,99.99
2017-04-12T00:39:37.454Z,99.99
2017-04-12T00:40:18.338Z,99.99
2017-04-12T00:40:59.219Z,99.99
2017-04-12T00:41:40.098Z,99.99
2017-04-12T00:42:20.976Z,99.99
2017-04-12T00:43:01.851Z,99.99
2017-04-12T00:43:42.732Z,99.99
2017-04-12T00:44:23.617Z,99.99
2017-04-12T00:45:04.491Z,99.99
2017-04-12T00:45:45.368Z,99.99
2017-04-12T00:46:26.264Z,99.99
2017-04-12T00:47:07.138Z,99.99
2017-04-12T00:47:48.024Z,99.99
2017-04-12T00:48:28.900Z,99.99
2017-04-12T00:49:09.784Z,99.99
2017-04-12T00:49:50.658Z,99.99
2017-04-12T00:50:31.557Z,99.99
2017-04-12T00:51:12.439Z,99.99
2017-04-12T00:51:53.320Z,99.99
2017-04-12T00:52:34.186Z,99.99
2017-04-12T00:53:15.078Z,99.99
2017-04-12T00:53:55.964Z,99.99
2017-04-12T00:54:36.847Z,99.99
2017-04-12T00:55:17.727Z,99.99
2017-04-12T00:55:58.605Z,99.99
2017-04-12T00:56:39.484Z,99.99
2017-04-12T00:57:20.364Z,99.99
2017-04-12T00:58:01.255Z,99.99
2017-04-12T00:58:42.134Z,99.99
2017-04-12T00:59:23.016Z,99.99
2017-04-12T01:00:03.900Z,99.99
2017-04-12T01:00:44.786Z,99.99
2017-04-12T01:01:25.663Z,99.99
2017-04-12T01:02:06.548Z,99.99
2017-04-12T01:02:47.431Z,99.99
2017-04-12T01:03:28.310Z,99.99
2017-04-12T01:04:09.182Z,99.99
2017-04-12T01:04:50.055Z,99.99
2017-04-12T01:05:30.927Z,99.99
2017-04-12T01:06:11.825Z,99.99
2017-04-12T01:06:52.708Z,99.99
2017-04-12T01:07:33.583Z,99.99
2017-04-12T01:08:14.469Z,99.99
2017-04-12T01:08:55.361Z,99.99
2017-04-12T01:09:36.246Z,99.99
2017-04-12T01:10:17.121Z,99.99
2017-04-12T01:10:57.991Z,99.99
2017-04-12T01:11:38.866Z,99.99
2017-04-12T01:12:19.747Z,99.99
2017-04-12T01:13:00.628Z,99.99
2017-04-12T01:13:41.504Z,99.99
2017-04-12T01:14:22.372Z,99.99
2017-04-12T01:15:03.240Z,99.99
2017-04-12T01:15:44.123Z,99.99
2017-04-12T01:16:25.007Z,99.99
2017-04-12T01:17:05.888Z,99.99
2017-04-12T01:17:46.758Z,99.99
2017-04-12T01:18:27.630Z,99.99
2017-04-12T01:19:08.519Z,99.99
2017-04-12T01:19:49.405Z,99.99
2017-04-12T01:20:30.282Z,99.99
2017-04-12T01:21:11.152Z,99.99
2017-04-12T01:21:52.036Z,99.99
2017-04-12T01:22:32.919Z,99.99
2017-04-12T01:23:13.801Z,99.99
2017-04-12T01:23:54.664Z,99.99
2017-04-12T01:24:35.543Z,99.99
2017-04-12T01:25:16.415Z,99.99
2017-04-12T01:25:57.297Z,99.99
2017-04-12T01:26:38.178Z,99.99
2017-04-12T01:27:19.055Z,99.99
2017-04-12T01:27:59.918Z,99.99
2017-04-12T01:28:40.796Z,99.99
2017-04-12T01:29:21.675Z,99.99
2017-04-12T01:30:02.550Z,99.99
2017-04-12T01:30:43.436Z,99.99
2017-04-12T01:31:24.308Z,99.99
2017-04-12T01:32:05.174Z,99.99
2017-04-12T01:32:46.052Z,99.99
2017-04-12T01:33:26.930Z,99.99
2017-04-12T01:34:07.808Z,99.99
2017-04-12T01:34:48.684Z,99.99
2017-04-12T01:35:29.569Z,99.99
2017-04-12T01:36:10.436Z,99.99
2017-04-12T01:36:51.320Z,99.99
2017-04-12T01:37:32.221Z,99.99
2017-04-12T01:38:13.092Z,99.99
2017-04-12T01:38:53.968Z,99.99
2017-04-12T01:39:34.848Z,99.99
2017-04-12T01:40:15.734Z,99.99
2017-04-12T01:40:56.616Z,99.99
2017-04-12T01:41:37.496Z,99.99
2017-04-12T01:42:18.415Z,99.99
2017-04-12T01:42:59.272Z,99.99
2017-04-12T01:43:40.158Z,99.99
2017-04-12T01:44:21.042Z,99.99
2017-04-12T01:45:01.920Z,99.99
2017-04-12T01:45:42.804Z,99.99
2017-04-12T01:46:23.676Z,99.99
2017-04-12T01:47:04.560Z,99.99
2017-04-12T01:47:45.437Z,99.99
2017-04-12T01:48:26.302Z,99.99
2017-04-12T01:49:07.192Z,99.99
2017-04-12T01:49:48.072Z,99.99
2017-04-12T01:50:28.947Z,99.99
2017-04-12T01:51:09.833Z,99.99
2017-04-12T01:51:50.716Z,99.99
2017-04-12T01:52:31.601Z,99.99
2017-04-12T01:53:12.482Z,99.99
2017-04-12T01:53:53.361Z,99.99
2017-04-12T01:54:34.275Z,99.99
2017-04-12T01:55:15.154Z,99.99
2017-04-12T01:55:56.035Z,99.99
2017-04-12T01:56:36.933Z,99.99
2017-04-12T01:57:17.812Z,99.99
2017-04-12T01:57:58.690Z,99.99
2017-04-12T01:58:39.571Z,99.99
2017-04-12T01:59:20.465Z,99.99
2017-04-12T02:00:01.387Z,99.99
2017-04-12T02:00:42.215Z,99.99
2017-04-12T02:01:23.096Z,99.99
2017-04-12T02:02:03.978Z,99.99
2017-04-12T02:02:44.841Z,99.99
2017-04-12T02:03:25.726Z,99.99
2017-04-12T02:04:06.600Z,99.99
2017-04-12T02:04:47.482Z,99.99
2017-04-12T02:05:28.363Z,99.99
2017-04-12T02:06:09.247Z,99.99
2017-04-12T02:06:50.127Z,99.99
2017-04-12T02:07:31.013Z,99.99
2017-04-12T02:08:11.889Z,99.99
2017-04-12T02:08:52.781Z,99.99
2017-04-12T02:09:33.656Z,99.99
2017-04-12T02:10:14.533Z,99.99
2017-04-12T02:10:55.413Z,99.99
2017-04-12T02:11:36.288Z,99.99
2017-04-12T02:12:17.170Z,99.99
2017-04-12T02:12:58.047Z,99.99
2017-04-12T02:13:38.915Z,99.99
2017-04-12T02:14:19.787Z,99.99
2017-04-12T02:15:00.664Z,99.99
2017-04-12T02:15:41.548Z,99.99
2017-04-12T02:16:22.493Z,99.99
2017-04-12T02:17:03.445Z,99.99
2017-04-12T02:17:44.347Z,99.99
2017-04-12T02:18:25.251Z,99.99
2017-04-12T02:19:06.132Z,99.99
2017-04-12T02:19:47.018Z,99.99
2017-04-12T02:20:27.930Z,99.99
2017-04-12T02:21:08.838Z,99.99
2017-04-12T02:21:49.722Z,99.99
2017-04-12T02:22:30.605Z,99.99
2017-04-12T02:23:11.490Z,99.99
2017-04-12T02:23:52.369Z,99.99
2017-04-12T02:24:33.251Z,99.99
2017-04-12T02:25:14.127Z,99.99
2017-04-12T02:25:54.995Z,99.99
2017-04-12T02:26:35.877Z,99.99
2017-04-12T02:27:16.759Z,99.99
2017-04-12T02:27:57.639Z,99.99
2017-04-12T02:28:38.523Z,99.99
2017-04-12T02:29:19.400Z,99.99
2017-04-12T02:30:00.287Z,99.99
2017-04-12T02:30:41.167Z,99.99
2017-04-12T02:31:22.042Z,99.99
2017-04-12T02:32:02.924Z,99.99
2017-04-12T02:32:43.802Z,99.99
2017-04-12T02:33:24.681Z,99.99
2017-04-12T02:34:05.553Z,99.99
2017-04-12T02:34:46.472Z,99.99
2017-04-12T02:35:27.332Z,99.99
2017-04-12T02:36:08.208Z,99.99
2017-04-12T02:36:49.080Z,99.99
2017-04-12T02:37:29.963Z,99.99
2017-04-12T02:38:10.842Z,99.99
2017-04-12T02:38:51.718Z,99.99
2017-04-12T02:39:32.606Z,99.99
2017-04-12T02:40:13.483Z,99.99
2017-04-12T02:40:54.375Z,99.99
2017-04-12T02:41:35.246Z,99.99
2017-04-12T02:42:16.125Z,99.99
2017-04-12T02:42:56.998Z,99.99
2017-04-12T02:43:37.879Z,99.99
2017-04-12T02:44:18.760Z,99.99
2017-04-12T02:44:59.654Z,99.99
2017-04-12T02:45:40.531Z,99.99
2017-04-12T02:46:21.407Z,99.99
2017-04-12T02:47:02.278Z,99.99
2017-04-12T02:47:43.154Z,99.99
2017-04-12T02:48:24.109Z,99.99
2017-04-12T02:49:05.163Z,99.99
2017-04-12T02:49:46.178Z,99.99
2017-04-12T02:50:27.066Z,99.99
2017-04-12T02:51:07.948Z,99.99
2017-04-12T02:51:48.855Z,99.99
2017-04-12T02:52:29.738Z,99.99
2017-04-12T02:53:10.622Z,99.99
2017-04-12T02:53:51.507Z,99.99
2017-04-12T02:54:32.376Z,99.99
2017-04-12T02:55:13.258Z,99.99
2017-04-12T02:55:54.138Z,99.99
2017-04-12T02:56:35.021Z,99.99
2017-04-12T02:57:15.906Z,99.99
2017-04-12T02:57:56.788Z,99.99
2017-04-12T02:58:37.674Z,99.99
2017-04-12T02:59:18.555Z,99.99
2017-04-12T02:59:59.438Z,99.99
2017-04-12T03:00:40.308Z,99.99
2017-04-12T03:01:21.191Z,99.99
2017-04-12T03:02:02.066Z,99.99
2017-04-12T03:02:42.950Z,99.99
2017-04-12T03:03:23.829Z,99.99
2017-04-12T03:04:04.708Z,99.99
2017-04-12T03:04:45.596Z,99.99
2017-04-12T03:05:26.476Z,99.99
2017-04-12T03:06:07.353Z,99.99
2017-04-12T03:06:48.235Z,99.99
2017-04-12T03:07:29.112Z,99.99
2017-04-12T03:08:09.995Z,99.99
2017-04-12T03:08:50.902Z,99.99
2017-04-12T03:09:31.803Z,99.99
2017-04-12T03:10:12.668Z,99.99
2017-04-12T03:10:53.550Z,99.99
2017-04-12T03:11:34.467Z,99.99
2017-04-12T03:12:15.306Z,99.99
2017-04-12T03:12:56.193Z,99.99
2017-04-12T03:13:37.084Z,99.99
2017-04-12T03:14:17.954Z,99.99
2017-04-12T03:14:58.851Z,99.99
2017-04-12T03:15:39.726Z,99.99
2017-04-12T03:16:20.610Z,99.99
2017-04-12T03:17:01.498Z,99.99
2017-04-12T03:17:42.383Z,99.99
2017-04-12T03:18:23.263Z,99.99
2017-04-12T03:19:04.136Z,99.99
2017-04-12T03:19:44.996Z,99.99
2017-04-12T03:20:25.868Z,99.99
2017-04-12T03:21:06.759Z,99.99
2017-04-12T03:21:47.634Z,99.99
2017-04-12T03:22:28.508Z,99.99
2017-04-12T03:23:09.389Z,99.99
2017-04-12T03:23:50.280Z,99.99
2017-04-12T03:24:31.160Z,99.99
2017-04-12T03:25:12.042Z,99.99
2017-04-12T03:25:52.921Z,99.99
2017-04-12T03:26:33.801Z,99.99
2017-04-12T03:27:14.690Z,99.99
2017-04-12T03:27:55.581Z,99.99
2017-04-12T03:28:36.462Z,99.99
2017-04-12T03:29:17.336Z,99.99
2017-04-12T03:29:58.230Z,99.99
2017-04-12T03:30:39.108Z,99.99
2017-04-12T03:31:19.994Z,99.99
2017-04-12T03:32:00.884Z,99.99
2017-04-12T03:32:41.761Z,99.99
2017-04-12T03:33:22.643Z,99.99
2017-04-12T03:34:03.513Z,99.99
2017-04-12T03:34:44.390Z,99.99
2017-04-12T03:35:25.267Z,99.99
2017-04-12T03:36:06.149Z,99.99
2017-04-12T03:36:47.029Z,99.99
2017-04-12T03:37:27.904Z,99.99
2017-04-12T03:38:08.777Z,99.99
2017-04-12T03:38:49.661Z,99.99
2017-04-12T03:39:30.558Z,99.99
2017-04-12T03:40:11.446Z,99.99
2017-04-12T03:40:52.324Z,99.99
2017-04-12T03:41:33.206Z,99.99
2017-04-12T03:42:14.083Z,99.99
2017-04-12T03:42:54.969Z,99.99
2017-04-12T03:43:35.853Z,99.99
2017-04-12T03:44:16.738Z,99.99
2017-04-12T03:44:57.616Z,99.99
2017-04-12T03:45:38.500Z,99.99
2017-04-12T03:46:19.379Z,99.99
2017-04-12T03:47:00.912Z,99.99
2017-04-12T03:47:41.792Z,99.99
2017-04-12T03:48:22.669Z,99.99
2017-04-12T03:49:03.552Z,99.99
2017-04-12T03:49:44.434Z,99.99
2017-04-12T03:50:25.311Z,99.99
2017-04-12T03:51:06.199Z,99.99
2017-04-12T03:51:47.077Z,99.99
2017-04-12T03:52:27.956Z,99.99
2017-04-12T03:53:08.845Z,99.99
2017-04-12T03:53:49.711Z,99.99
2017-04-12T03:54:30.575Z,99.99
2017-04-12T03:55:11.450Z,99.99
2017-04-12T03:55:52.327Z,99.99
2017-04-12T03:56:33.211Z,99.99
2017-04-12T03:57:14.095Z,99.99
2017-04-12T03:57:54.972Z,99.99
2017-04-12T03:58:35.853Z,99.99
2017-04-12T03:59:16.731Z,99.99
2017-04-12T03:59:57.632Z,99.99
2017-04-12T04:00:38.508Z,99.99
2017-04-12T04:01:19.392Z,99.99
2017-04-12T04:02:00.287Z,99.99
2017-04-12T04:02:41.165Z,99.99
2017-04-12T04:03:22.048Z,99.99
2017-04-12T04:04:02.935Z,99.99
2017-04-12T04:04:43.813Z,99.99
2017-04-12T04:05:24.717Z,99.99
2017-04-12T04:06:05.570Z,99.99
2017-04-12T04:06:46.445Z,99.99
2017-04-12T04:07:27.329Z,99.99
2017-04-12T04:08:08.212Z,99.99
2017-04-12T04:08:49.085Z,99.99
2017-04-12T04:09:29.965Z,99.99
2017-04-12T04:10:10.842Z,99.99
2017-04-12T04:10:51.718Z,99.99
2017-04-12T04:11:32.608Z,99.99
2017-04-12T04:12:13.482Z,99.99
2017-04-12T04:12:54.366Z,99.99
2017-04-12T04:13:35.251Z,99.99
2017-04-12T04:14:16.134Z,99.99
2017-04-12T04:14:57.010Z,99.99
2017-04-12T04:15:37.888Z,99.99
2017-04-12T04:16:18.765Z,99.99
2017-04-12T04:16:59.644Z,99.99
2017-04-12T04:17:40.540Z,99.99
2017-04-12T04:18:21.414Z,99.99
2017-04-12T04:19:02.289Z,99.99
2017-04-12T04:19:43.176Z,99.99
2017-04-12T04:20:24.055Z,99.99
2017-04-12T04:21:04.933Z,99.99
2017-04-12T04:21:45.803Z,99.99
2017-04-12T04:22:26.686Z,99.99
2017-04-12T04:23:07.565Z,99.99
2017-04-12T04:23:48.449Z,99.99
2017-04-12T04:24:29.323Z,99.99
2017-04-12T04:25:10.199Z,99.99
2017-04-12T04:25:51.078Z,99.99
2017-04-12T04:26:31.965Z,99.99
2017-04-12T04:27:12.857Z,99.99
2017-04-12T04:27:53.749Z,99.99
2017-04-12T04:28:34.639Z,99.99
2017-04-12T04:29:15.518Z,99.99
2017-04-12T04:29:56.395Z,99.99
2017-04-12T04:30:37.270Z,99.99
2017-04-12T04:31:18.149Z,99.99
2017-04-12T04:31:59.034Z,99.99
2017-04-12T04:32:39.923Z,99.99
2017-04-12T04:33:20.799Z,99.99
2017-04-12T04:34:54.117Z,99.99
2017-04-12T04:35:34.999Z,99.99
2017-04-12T04:36:15.885Z,99.99
2017-04-12T04:36:56.766Z,99.99
2017-04-12T04:37:37.641Z,99.99
2017-04-12T04:38:18.525Z,99.99
2017-04-12T04:38:59.417Z,99.99
2017-04-12T04:39:40.289Z,99.99
2017-04-12T04:40:21.166Z,99.99
2017-04-12T04:41:02.058Z,99.99
2017-04-12T04:41:42.916Z,99.99
2017-04-12T04:42:23.799Z,99.99
2017-04-12T04:43:04.677Z,99.99
2017-04-12T04:43:45.551Z,99.99
2017-04-12T04:44:26.428Z,99.99
2017-04-12T04:45:07.307Z,99.99
2017-04-12T04:45:48.185Z,99.99
2017-04-12T04:46:29.059Z,99.99
2017-04-12T04:47:09.934Z,99.99
2017-04-12T04:47:50.809Z,99.99
2017-04-12T04:48:31.697Z,99.99
2017-04-12T04:49:12.568Z,99.99
2017-04-12T04:49:53.457Z,99.99
2017-04-12T04:50:34.328Z,99.99
2017-04-12T04:51:15.208Z,99.99
2017-04-12T04:51:56.088Z,99.99
2017-04-12T04:52:36.969Z,99.99
2017-04-12T04:53:17.848Z,99.99
2017-04-12T04:53:58.727Z,99.99
2017-04-12T04:54:39.605Z,99.99
2017-04-12T04:55:20.485Z,99.99
2017-04-12T04:56:01.366Z,99.99
2017-04-12T04:56:42.236Z,99.99
2017-04-12T04:57:23.116Z,99.99
2017-04-12T04:58:03.992Z,99.99
2017-04-12T04:58:44.863Z,99.99
2017-04-12T04:59:25.745Z,99.99
2017-04-12T05:00:06.624Z,99.99
2017-04-12T05:00:47.501Z,99.99
2017-04-12T05:01:28.378Z,99.99
2017-04-12T05:02:09.254Z,99.99
2017-04-12T05:02:50.139Z,99.99
2017-04-12T05:03:31.020Z,99.99
2017-04-12T05:04:11.889Z,99.99
2017-04-12T05:04:52.770Z,99.99
2017-04-12T05:05:33.645Z,99.99
2017-04-12T05:06:14.522Z,99.99
2017-04-12T05:06:55.412Z,99.99
2017-04-12T05:07:36.278Z,99.99
2017-04-12T05:08:17.160Z,99.99
2017-04-12T05:08:58.039Z,99.99
2017-04-12T05:09:38.921Z,99.99
2017-04-12T05:10:19.801Z,99.99
2017-04-12T05:11:00.720Z,99.99
2017-04-12T05:11:41.603Z,99.99
2017-04-12T05:12:22.487Z,99.99
2017-04-12T05:13:03.387Z,99.99
2017-04-12T05:13:44.267Z,99.99
2017-04-12T05:14:25.150Z,99.99
2017-04-12T05:15:06.040Z,99.99
2017-04-12T05:15:46.891Z,99.99
2017-04-12T05:16:27.779Z,99.99
2017-04-12T05:17:08.657Z,99.99
2017-04-12T05:17:49.539Z,99.99
2017-04-12T05:18:30.417Z,99.99
2017-04-12T05:19:11.290Z,99.99
2017-04-12T05:19:52.171Z,99.99
2017-04-12T05:20:33.057Z,99.99
2017-04-12T05:21:13.936Z,99.99
2017-04-12T05:21:54.812Z,99.99
2017-04-12T05:22:35.685Z,99.99
2017-04-12T05:23:16.563Z,99.99
2017-04-12T05:23:57.448Z,99.99
2017-04-12T05:24:38.327Z,99.99
2017-04-12T05:25:19.210Z,99.99
2017-04-12T05:26:00.071Z,99.99
2017-04-12T05:26:40.936Z,99.99
2017-04-12T05:27:21.812Z,99.99
2017-04-12T05:28:02.678Z,99.99
2017-04-12T05:28:43.574Z,99.99
2017-04-12T05:29:24.437Z,99.99
2017-04-12T05:30:05.308Z,99.99
2017-04-12T05:30:46.174Z,99.99
2017-04-12T05:31:27.049Z,99.99
2017-04-12T05:32:07.949Z,99.99
2017-04-12T05:32:48.827Z,99.99
2017-04-12T05:33:29.708Z,99.99
2017-04-12T05:34:10.585Z,99.99
2017-04-12T05:34:51.478Z,99.99
2017-04-12T05:35:32.379Z,99.99
2017-04-12T05:36:13.300Z,99.99
2017-04-12T05:36:54.189Z,99.99
2017-04-12T05:37:35.063Z,99.99
2017-04-12T05:38:15.948Z,99.99
2017-04-12T05:38:56.861Z,99.99
2017-04-12T05:39:37.729Z,99.99
2017-04-12T05:40:18.603Z,99.99
2017-04-12T05:40:59.491Z,99.99
2017-04-12T05:41:40.387Z,99.99
2017-04-12T05:42:21.262Z,99.99
2017-04-12T05:43:02.137Z,99.99
2017-04-12T05:43:43.021Z,99.99
2017-04-12T05:44:23.898Z,99.99
2017-04-12T05:45:04.802Z,99.99
2017-04-12T05:45:45.671Z,99.99
2017-04-12T05:46:26.547Z,99.99
2017-04-12T05:47:07.433Z,99.99
2017-04-12T05:47:48.318Z,99.99
2017-04-12T05:48:29.200Z,99.99
2017-04-12T05:49:10.070Z,99.99
2017-04-12T05:49:50.960Z,99.99
2017-04-12T05:50:31.852Z,99.99
2017-04-12T05:51:12.722Z,99.99
2017-04-12T05:51:53.597Z,99.99
2017-04-12T05:52:34.476Z,99.99
2017-04-12T05:53:15.367Z,99.99
2017-04-12T05:53:56.247Z,99.99
2017-04-12T05:54:37.125Z,99.99
2017-04-12T05:55:18.004Z,99.99
2017-04-12T05:55:58.885Z,99.99
2017-04-12T05:56:39.776Z,99.99
2017-04-12T05:57:20.657Z,99.99
2017-04-12T05:58:01.536Z,99.99
2017-04-12T05:58:42.463Z,99.99
2017-04-12T05:59:23.335Z,99.99
2017-04-12T06:00:04.212Z,99.99
2017-04-12T06:00:45.075Z,99.99
2017-04-12T06:01:25.958Z,99.99
2017-04-12T06:02:06.834Z,99.99
2017-04-12T06:02:47.713Z,99.99
2017-04-12T06:03:28.592Z,99.99
2017-04-12T06:04:09.507Z,99.99
2017-04-12T06:04:50.387Z,99.99
2017-04-12T06:05:31.261Z,99.99
2017-04-12T06:06:12.137Z,99.99
2017-04-12T06:06:53.014Z,99.99
2017-04-12T06:07:33.892Z,99.99
2017-04-12T06:08:14.764Z,99.99
2017-04-12T06:08:55.646Z,99.99
2017-04-12T06:09:36.524Z,99.99
2017-04-12T06:10:17.405Z,99.99
2017-04-12T06:10:58.278Z,99.99
2017-04-12T06:11:39.148Z,99.99
2017-04-12T06:12:20.030Z,99.99
2017-04-12T06:13:00.906Z,99.99
2017-04-12T06:13:41.788Z,99.99
2017-04-12T06:14:22.663Z,99.99
2017-04-12T06:15:03.544Z,99.99
2017-04-12T06:15:44.431Z,99.99
2017-04-12T06:16:25.298Z,99.99
2017-04-12T06:17:06.176Z,99.99
2017-04-12T06:17:47.060Z,99.99
2017-04-12T06:18:27.939Z,99.99
2017-04-12T06:19:08.814Z,99.99
2017-04-12T06:19:49.678Z,99.99
2017-04-12T06:20:30.557Z,99.99
2017-04-12T06:21:11.435Z,99.99
2017-04-12T06:21:52.317Z,99.99
2017-04-12T06:22:33.202Z,99.99
2017-04-12T06:23:14.080Z,99.99
2017-04-12T06:23:54.970Z,99.99
2017-04-12T06:24:35.852Z,99.99
2017-04-12T06:25:16.752Z,99.99
2017-04-12T06:25:57.635Z,99.99
2017-04-12T06:26:38.511Z,99.99
2017-04-12T06:27:19.401Z,99.99
2017-04-12T06:28:00.319Z,99.99
2017-04-12T06:28:41.172Z,99.99
2017-04-12T06:29:22.074Z,99.99
2017-04-12T06:30:02.970Z,99.99
2017-04-12T06:30:43.866Z,99.99
2017-04-12T06:31:24.735Z,99.99
2017-04-12T06:32:05.609Z,99.99
2017-04-12T06:32:46.484Z,99.99
2017-04-12T06:33:27.365Z,99.99
2017-04-12T06:34:08.285Z,99.99
2017-04-12T06:34:49.155Z,99.99
2017-04-12T06:35:30.036Z,99.99
2017-04-12T06:36:10.905Z,99.99
2017-04-12T06:36:51.786Z,99.99
2017-04-12T06:37:32.663Z,99.99
2017-04-12T06:38:13.532Z,99.99
2017-04-12T06:38:54.410Z,99.99
2017-04-12T06:39:35.286Z,99.99
2017-04-12T06:40:16.183Z,99.99
2017-04-12T06:40:57.107Z,99.99
2017-04-12T06:41:37.997Z,99.99
2017-04-12T06:42:18.867Z,99.99
2017-04-12T06:42:59.748Z,99.99
2017-04-12T06:43:40.638Z,99.99
2017-04-12T06:44:21.525Z,99.99
2017-04-12T06:45:02.405Z,99.99
2017-04-12T06:45:43.296Z,99.99
2017-04-12T06:46:24.161Z,99.99
2017-04-12T06:47:05.053Z,99.99
2017-04-12T06:47:45.946Z,99.99
2017-04-12T06:48:26.804Z,99.99
2017-04-12T06:49:07.693Z,99.99
2017-04-12T06:49:48.573Z,99.99
2017-04-12T06:50:29.454Z,99.99
2017-04-12T06:51:10.338Z,99.99
2017-04-12T06:51:51.213Z,99.99
2017-04-12T06:52:32.094Z,99.99
2017-04-12T06:53:12.972Z,99.99
2017-04-12T06:53:53.851Z,99.99
2017-04-12T06:54:34.741Z,99.99
2017-04-12T06:55:15.617Z,99.99
2017-04-12T06:55:56.502Z,99.99
2017-04-12T06:56:37.383Z,99.99
2017-04-12T06:57:18.261Z,99.99
2017-04-12T06:57:59.148Z,99.99
2017-04-12T06:58:40.030Z,99.99
2017-04-12T06:59:20.911Z,99.99
2017-04-12T07:00:01.817Z,99.99
2017-04-12T07:00:42.741Z,99.99
2017-04-12T07:01:23.591Z,99.99
2017-04-12T07:02:04.506Z,99.99
2017-04-12T07:02:45.383Z,99.99
2017-04-12T07:03:26.261Z,99.99
2017-04-12T07:04:07.153Z,99.99
2017-04-12T07:04:48.025Z,99.99
2017-04-12T07:05:28.900Z,99.99
2017-04-12T07:06:09.809Z,99.99
2017-04-12T07:06:50.681Z,99.99
2017-04-12T07:07:31.554Z,99.99
2017-04-12T07:08:12.433Z,99.99
2017-04-12T07:08:53.311Z,99.99
2017-04-12T07:09:34.197Z,99.99
2017-04-12T07:10:15.076Z,99.99
2017-04-12T07:10:55.974Z,99.99
2017-04-12T07:11:36.854Z,99.99
2017-04-12T07:12:17.726Z,99.99
2017-04-12T07:12:58.599Z,99.99
2017-04-12T07:13:39.477Z,99.99
2017-04-12T07:14:20.423Z,99.99
2017-04-12T07:15:01.306Z,99.99
2017-04-12T07:15:42.182Z,99.99
2017-04-12T07:16:23.071Z,99.99
2017-04-12T07:17:03.945Z,99.99
2017-04-12T07:17:44.828Z,99.99
2017-04-12T07:18:25.716Z,99.99
2017-04-12T07:19:06.606Z,99.99
2017-04-12T07:19:47.489Z,99.99
2017-04-12T07:20:28.364Z,99.99
2017-04-12T07:21:09.249Z,99.99
2017-04-12T07:21:50.164Z,99.99
2017-04-12T07:22:31.047Z,99.99
2017-04-12T07:23:11.924Z,99.99
2017-04-12T07:23:52.814Z,99.99
2017-04-12T07:24:33.696Z,99.99
2017-04-12T07:25:14.579Z,99.99
2017-04-12T07:25:55.465Z,99.99
2017-04-12T07:26:36.350Z,99.99
2017-04-12T07:27:17.261Z,99.99
2017-04-12T07:27:58.139Z,99.99
2017-04-12T07:28:39.024Z,99.99
2017-04-12T07:29:19.897Z,99.99
2017-04-12T07:30:00.787Z,99.99
2017-04-12T07:30:41.667Z,99.99
2017-04-12T07:31:22.555Z,99.99
2017-04-12T07:32:03.440Z,99.99
2017-04-12T07:32:44.317Z,99.99
2017-04-12T07:33:25.200Z,99.99
2017-04-12T07:34:06.094Z,99.99
2017-04-12T07:34:46.974Z,99.99
2017-04-12T07:35:27.837Z,99.99
2017-04-12T07:36:08.719Z,99.99
2017-04-12T07:36:49.607Z,99.99
2017-04-12T07:37:30.485Z,99.99
2017-04-12T07:38:11.352Z,99.99
2017-04-12T07:38:52.231Z,99.99
2017-04-12T07:39:33.088Z,99.99
2017-04-12T07:40:13.963Z,99.99
2017-04-12T07:40:54.846Z,99.99
2017-04-12T07:41:35.721Z,99.99
2017-04-12T07:42:16.601Z,99.99
2017-04-12T07:42:57.482Z,99.99
2017-04-12T07:43:38.357Z,99.99
2017-04-12T07:44:19.240Z,99.99
2017-04-12T07:45:00.124Z,99.99
2017-04-12T07:45:41.006Z,99.99
2017-04-12T07:46:21.909Z,99.99
2017-04-12T07:47:02.774Z,99.99
2017-04-12T07:47:43.624Z,99.99
2017-04-12T07:48:24.507Z,99.99
2017-04-12T07:49:05.371Z,99.99
2017-04-12T07:49:46.251Z,99.99
2017-04-12T07:50:27.150Z,99.99
2017-04-12T07:51:08.028Z,99.99
2017-04-12T07:51:48.915Z,99.99
2017-04-12T07:52:29.789Z,99.99
2017-04-12T07:53:10.679Z,99.99
2017-04-12T07:53:51.571Z,99.99
2017-04-12T07:54:32.443Z,99.99
2017-04-12T07:55:13.316Z,99.99
2017-04-12T07:55:54.197Z,99.99
2017-04-12T07:56:35.064Z,99.99
2017-04-12T07:57:15.948Z,99.99
2017-04-12T07:57:56.832Z,99.99
2017-04-12T07:58:37.725Z,99.99
2017-04-12T07:59:18.613Z,99.99
2017-04-12T07:59:59.497Z,99.99
2017-04-12T08:00:40.376Z,99.99
2017-04-12T08:01:21.253Z,99.99
2017-04-12T08:02:02.147Z,99.99
2017-04-12T08:02:43.004Z,99.99
2017-04-12T08:03:23.891Z,99.99
2017-04-12T08:04:04.768Z,99.99
2017-04-12T08:04:45.651Z,99.99
2017-04-12T08:05:26.537Z,99.99
2017-04-12T08:06:07.431Z,99.99
2017-04-12T08:06:48.313Z,99.99
2017-04-12T08:07:29.193Z,99.99
2017-04-12T08:08:10.075Z,99.99
2017-04-12T08:08:50.957Z,99.99
2017-04-12T08:09:31.848Z,99.99
2017-04-12T08:10:12.733Z,99.99
2017-04-12T08:10:53.633Z,99.99
2017-04-12T08:11:34.511Z,99.99
2017-04-12T08:12:15.388Z,99.99
2017-04-12T08:12:56.265Z,99.99
2017-04-12T08:13:37.138Z,99.99
2017-04-12T08:14:18.024Z,99.99
2017-04-12T08:14:58.897Z,99.99
2017-04-12T08:15:39.767Z,99.99
2017-04-12T08:16:20.652Z,99.99
2017-04-12T08:17:01.531Z,99.99
2017-04-12T08:17:42.410Z,99.99
2017-04-12T08:18:23.288Z,99.99
2017-04-12T08:19:04.169Z,99.99
2017-04-12T08:19:45.066Z,99.99
2017-04-12T08:20:25.950Z,99.99
2017-04-12T08:21:06.836Z,99.99
2017-04-12T08:21:47.719Z,99.99
2017-04-12T08:22:28.601Z,99.99
2017-04-12T08:23:09.491Z,99.99
2017-04-12T08:23:50.368Z,99.99
2017-04-12T08:24:31.247Z,99.99
2017-04-12T08:25:12.125Z,99.99
2017-04-12T08:25:53.012Z,99.99
2017-04-12T08:26:33.894Z,99.99
2017-04-12T08:27:14.782Z,99.99
2017-04-12T08:27:55.672Z,99.99
2017-04-12T08:28:36.541Z,99.55
2017-04-12T08:29:17.423Z,99.37
2017-04-12T08:29:58.313Z,99.75
2017-04-12T08:30:39.182Z,98.41
2017-04-12T08:31:20.080Z,98.51
2017-04-12T08:32:00.968Z,98.6
2017-04-12T08:32:41.849Z,99.08
2017-04-12T08:33:22.728Z,99.55
2017-04-12T08:34:03.613Z,99.27
2017-04-12T08:34:44.502Z,98.6
2017-04-12T08:35:25.378Z,98.32
2017-04-12T08:36:06.261Z,98.6
2017-04-12T08:36:47.146Z,98.46
2017-04-12T08:38:45.879Z,98.08
2017-04-12T08:39:26.745Z,98.08
2017-04-12T08:40:07.626Z,97.61
2017-04-12T08:40:48.516Z,98.36
2017-04-12T08:41:29.385Z,97.32
2017-04-12T08:42:10.267Z,96.08
2017-04-12T08:42:51.179Z,95.98
2017-04-12T08:43:32.058Z,96.17
2017-04-12T08:44:12.938Z,96.36
2017-04-12T08:44:53.828Z,96.36
2017-04-12T08:45:34.707Z,96.36
2017-04-12T08:46:15.594Z,96.65
2017-04-12T08:46:56.464Z,97.41
2017-04-12T08:47:37.349Z,97.32
2017-04-12T08:48:18.255Z,96.75
2017-04-12T08:48:59.124Z,97.03
2017-04-12T08:49:39.998Z,96.56